Galesburg, IL (61401)

09:08 AM CST die 10o February, anno 2016 (GMT -0600)
N9VPV | | Change Station
CLOSE
Current Station
Personal Weather Stations
Location: Galesburg, IL
Elevation: 777 ft
Nearby Weather Stations

Elev 777 ft 40.95 °N, 90.39 °W | Updated 3 minutes ago

Clear
Serena
10.8 °F
Feels Like 11 °F
N
3.0
Ventus Variabilis Ventus from Magis Zephyrus quam Aquilo
Gusts 4.0 mph

Hodie
High -- | Low -- °F
--% Chance of Precip.
Yesterday
High -- | Low -- °F
Precip. -- in
Pressio 30.11 in
Visibilitas 10.0 milia passuum
Clouds Serena
Frigus Venti 11 °F
Frigus in quo Ros apparet 4 °F
Umor 75%
Rainfall 0.00 in
Snow Depth Not available.
7:02 AM 5:29 PM
Waxing Crescent, 6% visible
METAR KGBG 101456Z AUTO 30008KT 10SM CLR M12/M16 A3011 RMK AO2
Pressio 30.11 in
Visibilitas 10.0 milia passuum
Clouds Serena
Frigus Venti 11 °F
Frigus in quo Ros apparet 4 °F
Umor 75%
Rainfall 0.00 in
Snow Depth Not available.
7:02 AM 5:29 PM
Waxing Crescent, 6% visible
METAR KGBG 101456Z AUTO 30008KT 10SM CLR M12/M16 A3011 RMK AO2

10-Day Weather Forecast

Almanac

Astronomy

Feb. 10, 2016 Rise Set
Actual Time
Civil Twilight
Nautical Twilight
Astronomical Twilight
Moon
Length Of Visible Light
Length of Day
Tomorrow will be .
, % of the Moon is Illuminated

Today's Extremes

State Highs State Lows

Community

WunderPhotos

Upload Photos

1,891,856 photos uploaded!

WunderBlog® & News

Nearby

Air Quality

  Air Quality AQ Index Pollutant
Not available.

Snow Depth

Station Depth Elevation

Earthquake Activity

City Distance Mag. Time & Date
Minimum magnitude displayed is 2.5.

Coastal Water Temperatures

Locus Calor

Stations

Nearby Weather Stations

Station Location Temp Frigus Venti Frigus in quo Ros apparet Umor Ventus Precip. Elev Renovata Type
                   

Watches & Warnings

There are currently no watches in effect.